sensor_id;sensor_type;location;lat;lon;timestamp;P1;durP1;ratioP1;P2;durP2;ratioP2
8232;SDS011;4157;48.074;9.952;2022-07-09T00:02:26;4.60;;;1.80;;
8232;SDS011;4157;48.074;9.952;2022-07-09T00:04:53;4.22;;;2.00;;
8232;SDS011;4157;48.074;9.952;2022-07-09T00:07:23;4.90;;;2.10;;
8232;SDS011;4157;48.074;9.952;2022-07-09T00:09:52;5.63;;;2.30;;
8232;SDS011;4157;48.074;9.952;2022-07-09T00:12:20;5.55;;;2.53;;
8232;SDS011;4157;48.074;9.952;2022-07-09T00:14:47;6.28;;;2.80;;
8232;SDS011;4157;48.074;9.952;2022-07-09T00:17:16;4.70;;;2.40;;
8232;SDS011;4157;48.074;9.952;2022-07-09T00:19:44;6.03;;;2.63;;
8232;SDS011;4157;48.074;9.952;2022-07-09T00:22:12;7.07;;;2.67;;
8232;SDS011;4157;48.074;9.952;2022-07-09T00:24:41;5.25;;;2.05;;
8232;SDS011;4157;48.074;9.952;2022-07-09T00:27:09;3.83;;;1.75;;
8232;SDS011;4157;48.074;9.952;2022-07-09T00:29:36;4.25;;;1.90;;
8232;SDS011;4157;48.074;9.952;2022-07-09T00:32:04;5.70;;;1.95;;
8232;SDS011;4157;48.074;9.952;2022-07-09T00:34:32;7.38;;;2.20;;
8232;SDS011;4157;48.074;9.952;2022-07-09T00:37:00;4.68;;;2.03;;
8232;SDS011;4157;48.074;9.952;2022-07-09T00:39:28;4.22;;;2.20;;
8232;SDS011;4157;48.074;9.952;2022-07-09T00:42:04;3.58;;;1.80;;
8232;SDS011;4157;48.074;9.952;2022-07-09T00:44:32;7.30;;;2.40;;
8232;SDS011;4157;48.074;9.952;2022-07-09T00:47:00;6.40;;;2.08;;
8232;SDS011;4157;48.074;9.952;2022-07-09T00:49:29;5.25;;;2.25;;
8232;SDS011;4157;48.074;9.952;2022-07-09T00:51:57;6.65;;;2.28;;
8232;SDS011;4157;48.074;9.952;2022-07-09T00:54:25;5.53;;;2.45;;
8232;SDS011;4157;48.074;9.952;2022-07-09T00:56:53;6.38;;;2.50;;
8232;SDS011;4157;48.074;9.952;2022-07-09T00:59:22;5.75;;;2.00;;
8232;SDS011;4157;48.074;9.952;2022-07-09T01:01:50;8.38;;;2.22;;
8232;SDS011;4157;48.074;9.952;2022-07-09T01:04:18;4.97;;;2.35;;
8232;SDS011;4157;48.074;9.952;2022-07-09T01:06:46;7.47;;;2.55;;
8232;SDS011;4157;48.074;9.952;2022-07-09T01:09:14;5.93;;;2.90;;
8232;SDS011;4157;48.074;9.952;2022-07-09T01:11:42;5.68;;;3.05;;
8232;SDS011;4157;48.074;9.952;2022-07-09T01:14:10;5.18;;;2.20;;
8232;SDS011;4157;48.074;9.952;2022-07-09T01:16:39;4.95;;;1.98;;
8232;SDS011;4157;48.074;9.952;2022-07-09T01:19:07;4.97;;;2.10;;
8232;SDS011;4157;48.074;9.952;2022-07-09T01:21:36;6.00;;;2.40;;
8232;SDS011;4157;48.074;9.952;2022-07-09T01:24:04;6.07;;;2.83;;
8232;SDS011;4157;48.074;9.952;2022-07-09T01:26:32;8.57;;;2.60;;
8232;SDS011;4157;48.074;9.952;2022-07-09T01:29:01;4.30;;;2.22;;
8232;SDS011;4157;48.074;9.952;2022-07-09T01:31:29;4.55;;;2.08;;
8232;SDS011;4157;48.074;9.952;2022-07-09T01:33:57;6.13;;;2.70;;
8232;SDS011;4157;48.074;9.952;2022-07-09T01:36:25;4.72;;;2.70;;
8232;SDS011;4157;48.074;9.952;2022-07-09T01:38:54;5.13;;;2.45;;
8232;SDS011;4157;48.074;9.952;2022-07-09T01:41:22;6.55;;;2.42;;
8232;SDS011;4157;48.074;9.952;2022-07-09T01:43:50;5.88;;;2.78;;
8232;SDS011;4157;48.074;9.952;2022-07-09T01:46:18;4.15;;;2.33;;
8232;SDS011;4157;48.074;9.952;2022-07-09T01:48:45;5.82;;;2.22;;
8232;SDS011;4157;48.074;9.952;2022-07-09T01:51:13;6.07;;;2.30;;
8232;SDS011;4157;48.074;9.952;2022-07-09T01:53:41;4.55;;;1.98;;
8232;SDS011;4157;48.074;9.952;2022-07-09T01:56:12;5.65;;;2.20;;
8232;SDS011;4157;48.074;9.952;2022-07-09T01:58:40;4.93;;;2.15;;
8232;SDS011;4157;48.074;9.952;2022-07-09T02:01:10;5.38;;;2.30;;
8232;SDS011;4157;48.074;9.952;2022-07-09T02:03:37;3.70;;;2.00;;
8232;SDS011;4157;48.074;9.952;2022-07-09T02:06:05;5.22;;;2.20;;
8232;SDS011;4157;48.074;9.952;2022-07-09T02:08:33;5.65;;;2.35;;
8232;SDS011;4157;48.074;9.952;2022-07-09T02:11:02;4.22;;;1.80;;
8232;SDS011;4157;48.074;9.952;2022-07-09T02:13:31;4.97;;;2.17;;
8232;SDS011;4157;48.074;9.952;2022-07-09T02:15:59;4.43;;;1.85;;
8232;SDS011;4157;48.074;9.952;2022-07-09T02:18:27;6.53;;;2.28;;
8232;SDS011;4157;48.074;9.952;2022-07-09T02:20:55;4.80;;;1.73;;
8232;SDS011;4157;48.074;9.952;2022-07-09T02:23:23;5.00;;;2.03;;
8232;SDS011;4157;48.074;9.952;2022-07-09T02:25:51;5.05;;;2.00;;
8232;SDS011;4157;48.074;9.952;2022-07-09T02:28:20;6.13;;;2.08;;
8232;SDS011;4157;48.074;9.952;2022-07-09T02:30:49;3.72;;;1.75;;
8232;SDS011;4157;48.074;9.952;2022-07-09T02:33:17;4.85;;;1.98;;
8232;SDS011;4157;48.074;9.952;2022-07-09T02:35:44;6.18;;;1.90;;
8232;SDS011;4157;48.074;9.952;2022-07-09T02:38:12;4.85;;;1.88;;
8232;SDS011;4157;48.074;9.952;2022-07-09T02:40:40;6.10;;;2.25;;
8232;SDS011;4157;48.074;9.952;2022-07-09T02:43:08;6.70;;;2.17;;
8232;SDS011;4157;48.074;9.952;2022-07-09T02:45:36;6.60;;;2.42;;
8232;SDS011;4157;48.074;9.952;2022-07-09T02:48:05;4.82;;;2.20;;
8232;SDS011;4157;48.074;9.952;2022-07-09T02:50:33;5.70;;;2.20;;
8232;SDS011;4157;48.074;9.952;2022-07-09T02:53:01;4.93;;;2.30;;
8232;SDS011;4157;48.074;9.952;2022-07-09T02:55:30;5.72;;;2.17;;
8232;SDS011;4157;48.074;9.952;2022-07-09T02:57:57;6.60;;;2.38;;
8232;SDS011;4157;48.074;9.952;2022-07-09T03:00:25;7.70;;;2.38;;
8232;SDS011;4157;48.074;9.952;2022-07-09T03:02:53;5.68;;;2.28;;
8232;SDS011;4157;48.074;9.952;2022-07-09T03:05:22;5.57;;;2.20;;
8232;SDS011;4157;48.074;9.952;2022-07-09T03:07:50;3.80;;;2.13;;
8232;SDS011;4157;48.074;9.952;2022-07-09T03:10:18;4.93;;;2.25;;
8232;SDS011;4157;48.074;9.952;2022-07-09T03:12:46;4.15;;;2.17;;
8232;SDS011;4157;48.074;9.952;2022-07-09T03:15:14;4.88;;;2.20;;
8232;SDS011;4157;48.074;9.952;2022-07-09T03:17:42;5.88;;;2.45;;
8232;SDS011;4157;48.074;9.952;2022-07-09T03:20:10;3.75;;;1.73;;
8232;SDS011;4157;48.074;9.952;2022-07-09T03:22:40;4.90;;;1.90;;
8232;SDS011;4157;48.074;9.952;2022-07-09T03:25:08;3.97;;;2.10;;
8232;SDS011;4157;48.074;9.952;2022-07-09T03:27:36;5.03;;;2.22;;
8232;SDS011;4157;48.074;9.952;2022-07-09T03:30:04;5.70;;;2.40;;
8232;SDS011;4157;48.074;9.952;2022-07-09T03:32:32;5.80;;;2.05;;
8232;SDS011;4157;48.074;9.952;2022-07-09T03:35:00;3.90;;;2.05;;
8232;SDS011;4157;48.074;9.952;2022-07-09T03:37:28;4.35;;;2.08;;
8232;SDS011;4157;48.074;9.952;2022-07-09T03:39:57;4.65;;;2.15;;
8232;SDS011;4157;48.074;9.952;2022-07-09T03:42:25;7.35;;;2.33;;
8232;SDS011;4157;48.074;9.952;2022-07-09T03:44:53;4.85;;;2.55;;
8232;SDS011;4157;48.074;9.952;2022-07-09T03:47:21;5.57;;;2.47;;
8232;SDS011;4157;48.074;9.952;2022-07-09T03:49:48;3.97;;;2.50;;
8232;SDS011;4157;48.074;9.952;2022-07-09T03:52:16;6.65;;;2.67;;
8232;SDS011;4157;48.074;9.952;2022-07-09T03:54:44;6.80;;;2.33;;
8232;SDS011;4157;48.074;9.952;2022-07-09T03:57:13;4.72;;;2.50;;
8232;SDS011;4157;48.074;9.952;2022-07-09T03:59:41;4.78;;;2.33;;
8232;SDS011;4157;48.074;9.952;2022-07-09T04:02:09;4.88;;;2.33;;
8232;SDS011;4157;48.074;9.952;2022-07-09T04:04:37;5.32;;;2.25;;
8232;SDS011;4157;48.074;9.952;2022-07-09T04:07:04;5.00;;;2.30;;
8232;SDS011;4157;48.074;9.952;2022-07-09T04:09:32;11.50;;;2.25;;
8232;SDS011;4157;48.074;9.952;2022-07-09T04:12:00;4.82;;;2.30;;
8232;SDS011;4157;48.074;9.952;2022-07-09T04:14:29;7.60;;;3.25;;
8232;SDS011;4157;48.074;9.952;2022-07-09T04:16:57;6.63;;;2.65;;
8232;SDS011;4157;48.074;9.952;2022-07-09T04:19:25;5.05;;;2.38;;
8232;SDS011;4157;48.074;9.952;2022-07-09T04:21:53;5.95;;;2.50;;
8232;SDS011;4157;48.074;9.952;2022-07-09T04:24:21;5.35;;;2.50;;
8232;SDS011;4157;48.074;9.952;2022-07-09T04:26:49;5.75;;;2.53;;
8232;SDS011;4157;48.074;9.952;2022-07-09T04:29:17;4.07;;;2.30;;
8232;SDS011;4157;48.074;9.952;2022-07-09T04:31:46;5.75;;;2.40;;
8232;SDS011;4157;48.074;9.952;2022-07-09T04:34:14;4.60;;;2.22;;
8232;SDS011;4157;48.074;9.952;2022-07-09T04:36:41;7.82;;;2.63;;
8232;SDS011;4157;48.074;9.952;2022-07-09T04:39:10;5.03;;;2.38;;
8232;SDS011;4157;48.074;9.952;2022-07-09T04:41:37;3.55;;;2.30;;
8232;SDS011;4157;48.074;9.952;2022-07-09T04:44:05;6.07;;;2.67;;
8232;SDS011;4157;48.074;9.952;2022-07-09T04:46:33;4.97;;;2.63;;
8232;SDS011;4157;48.074;9.952;2022-07-09T04:49:02;6.65;;;2.55;;
8232;SDS011;4157;48.074;9.952;2022-07-09T04:51:30;6.45;;;2.40;;
8232;SDS011;4157;48.074;9.952;2022-07-09T04:53:58;5.68;;;2.53;;
8232;SDS011;4157;48.074;9.952;2022-07-09T04:56:26;5.15;;;2.50;;
8232;SDS011;4157;48.074;9.952;2022-07-09T04:58:54;6.20;;;2.65;;
8232;SDS011;4157;48.074;9.952;2022-07-09T05:01:22;6.35;;;2.58;;
8232;SDS011;4157;48.074;9.952;2022-07-09T05:03:50;4.82;;;2.35;;
8232;SDS011;4157;48.074;9.952;2022-07-09T05:06:19;6.20;;;2.40;;
8232;SDS011;4157;48.074;9.952;2022-07-09T05:08:47;5.47;;;2.75;;
8232;SDS011;4157;48.074;9.952;2022-07-09T05:11:15;4.88;;;2.55;;
8232;SDS011;4157;48.074;9.952;2022-07-09T05:13:43;4.88;;;2.63;;
8232;SDS011;4157;48.074;9.952;2022-07-09T05:16:11;7.55;;;3.45;;
8232;SDS011;4157;48.074;9.952;2022-07-09T05:18:39;6.25;;;3.35;;
8232;SDS011;4157;48.074;9.952;2022-07-09T05:21:07;6.00;;;3.30;;
8232;SDS011;4157;48.074;9.952;2022-07-09T05:23:36;7.10;;;2.85;;
8232;SDS011;4157;48.074;9.952;2022-07-09T05:26:05;6.15;;;2.72;;
8232;SDS011;4157;48.074;9.952;2022-07-09T05:28:32;8.70;;;3.58;;
8232;SDS011;4157;48.074;9.952;2022-07-09T05:31:00;8.77;;;3.50;;
8232;SDS011;4157;48.074;9.952;2022-07-09T05:33:29;6.03;;;3.17;;
8232;SDS011;4157;48.074;9.952;2022-07-09T05:35:58;7.00;;;3.05;;
8232;SDS011;4157;48.074;9.952;2022-07-09T05:38:25;7.78;;;3.40;;
8232;SDS011;4157;48.074;9.952;2022-07-09T05:40:55;7.90;;;3.50;;
8232;SDS011;4157;48.074;9.952;2022-07-09T05:43:23;5.55;;;3.38;;
8232;SDS011;4157;48.074;9.952;2022-07-09T05:45:51;5.75;;;3.47;;
8232;SDS011;4157;48.074;9.952;2022-07-09T05:48:19;5.38;;;3.30;;
8232;SDS011;4157;48.074;9.952;2022-07-09T05:50:47;8.23;;;3.78;;
8232;SDS011;4157;48.074;9.952;2022-07-09T05:53:14;9.10;;;4.20;;
8232;SDS011;4157;48.074;9.952;2022-07-09T05:55:42;6.72;;;3.70;;
8232;SDS011;4157;48.074;9.952;2022-07-09T05:58:11;9.07;;;3.80;;
8232;SDS011;4157;48.074;9.952;2022-07-09T06:00:39;7.65;;;3.45;;
8232;SDS011;4157;48.074;9.952;2022-07-09T06:03:07;9.63;;;4.25;;
8232;SDS011;4157;48.074;9.952;2022-07-09T06:05:35;7.47;;;3.70;;
8232;SDS011;4157;48.074;9.952;2022-07-09T06:08:03;7.15;;;3.85;;
8232;SDS011;4157;48.074;9.952;2022-07-09T06:10:31;5.88;;;3.53;;
8232;SDS011;4157;48.074;9.952;2022-07-09T06:12:59;9.85;;;4.40;;
8232;SDS011;4157;48.074;9.952;2022-07-09T06:15:28;8.90;;;4.00;;
8232;SDS011;4157;48.074;9.952;2022-07-09T06:17:56;6.85;;;3.72;;
8232;SDS011;4157;48.074;9.952;2022-07-09T06:20:24;9.60;;;3.63;;
8232;SDS011;4157;48.074;9.952;2022-07-09T06:22:51;6.50;;;3.53;;
8232;SDS011;4157;48.074;9.952;2022-07-09T06:25:19;5.38;;;2.75;;
8232;SDS011;4157;48.074;9.952;2022-07-09T06:27:47;5.40;;;2.60;;
8232;SDS011;4157;48.074;9.952;2022-07-09T06:30:15;5.32;;;2.50;;
8232;SDS011;4157;48.074;9.952;2022-07-09T06:32:44;8.43;;;2.63;;
8232;SDS011;4157;48.074;9.952;2022-07-09T06:35:12;9.50;;;2.92;;
8232;SDS011;4157;48.074;9.952;2022-07-09T06:37:40;7.45;;;2.60;;
8232;SDS011;4157;48.074;9.952;2022-07-09T06:40:08;6.07;;;2.80;;
8232;SDS011;4157;48.074;9.952;2022-07-09T06:42:36;7.07;;;3.13;;
8232;SDS011;4157;48.074;9.952;2022-07-09T06:45:16;6.18;;;3.17;;
8232;SDS011;4157;48.074;9.952;2022-07-09T06:47:45;5.57;;;2.63;;
8232;SDS011;4157;48.074;9.952;2022-07-09T06:50:13;7.90;;;3.17;;
8232;SDS011;4157;48.074;9.952;2022-07-09T06:52:41;4.78;;;2.70;;
8232;SDS011;4157;48.074;9.952;2022-07-09T06:55:09;7.20;;;3.05;;
8232;SDS011;4157;48.074;9.952;2022-07-09T06:57:37;7.18;;;3.17;;
8232;SDS011;4157;48.074;9.952;2022-07-09T07:00:07;9.05;;;3.10;;
8232;SDS011;4157;48.074;9.952;2022-07-09T07:02:35;7.00;;;2.80;;
8232;SDS011;4157;48.074;9.952;2022-07-09T07:05:04;7.07;;;2.88;;
8232;SDS011;4157;48.074;9.952;2022-07-09T07:07:32;7.47;;;3.03;;
8232;SDS011;4157;48.074;9.952;2022-07-09T07:10:00;8.00;;;2.50;;
8232;SDS011;4157;48.074;9.952;2022-07-09T07:12:28;5.22;;;2.50;;
8232;SDS011;4157;48.074;9.952;2022-07-09T07:14:56;7.60;;;2.92;;
8232;SDS011;4157;48.074;9.952;2022-07-09T07:17:24;7.28;;;2.70;;
8232;SDS011;4157;48.074;9.952;2022-07-09T07:19:52;6.18;;;2.90;;
8232;SDS011;4157;48.074;9.952;2022-07-09T07:22:21;6.40;;;2.78;;
8232;SDS011;4157;48.074;9.952;2022-07-09T07:24:49;8.95;;;2.80;;
8232;SDS011;4157;48.074;9.952;2022-07-09T07:27:17;9.85;;;3.20;;
8232;SDS011;4157;48.074;9.952;2022-07-09T07:29:45;5.03;;;2.58;;
8232;SDS011;4157;48.074;9.952;2022-07-09T07:32:13;4.75;;;2.35;;
8232;SDS011;4157;48.074;9.952;2022-07-09T07:34:40;5.25;;;2.30;;
8232;SDS011;4157;48.074;9.952;2022-07-09T07:37:08;7.65;;;2.30;;
8232;SDS011;4157;48.074;9.952;2022-07-09T07:39:37;3.38;;;1.42;;
8232;SDS011;4157;48.074;9.952;2022-07-09T07:42:05;5.97;;;1.40;;
8232;SDS011;4157;48.074;9.952;2022-07-09T07:44:33;5.63;;;1.58;;
8232;SDS011;4157;48.074;9.952;2022-07-09T07:47:01;8.02;;;2.17;;
8232;SDS011;4157;48.074;9.952;2022-07-09T07:49:29;3.67;;;1.38;;
8232;SDS011;4157;48.074;9.952;2022-07-09T07:51:57;3.67;;;1.50;;
8232;SDS011;4157;48.074;9.952;2022-07-09T07:54:24;5.18;;;1.70;;
8232;SDS011;4157;48.074;9.952;2022-07-09T07:56:54;3.25;;;1.55;;
8232;SDS011;4157;48.074;9.952;2022-07-09T07:59:21;4.57;;;1.55;;
8232;SDS011;4157;48.074;9.952;2022-07-09T08:01:49;6.85;;;1.98;;
8232;SDS011;4157;48.074;9.952;2022-07-09T08:04:17;5.82;;;1.60;;
8232;SDS011;4157;48.074;9.952;2022-07-09T08:06:45;4.72;;;1.40;;
8232;SDS011;4157;48.074;9.952;2022-07-09T08:09:12;5.00;;;1.77;;
8232;SDS011;4157;48.074;9.952;2022-07-09T08:11:41;6.13;;;1.70;;
8232;SDS011;4157;48.074;9.952;2022-07-09T08:14:10;5.18;;;1.70;;
8232;SDS011;4157;48.074;9.952;2022-07-09T08:16:38;4.30;;;2.20;;
8232;SDS011;4157;48.074;9.952;2022-07-09T08:19:05;5.70;;;1.77;;
8232;SDS011;4157;48.074;9.952;2022-07-09T08:21:33;5.53;;;1.50;;
8232;SDS011;4157;48.074;9.952;2022-07-09T08:24:01;6.20;;;1.73;;
8232;SDS011;4157;48.074;9.952;2022-07-09T08:26:31;5.22;;;1.50;;
8232;SDS011;4157;48.074;9.952;2022-07-09T08:28:59;5.30;;;1.40;;
8232;SDS011;4157;48.074;9.952;2022-07-09T08:31:28;5.35;;;1.80;;
8232;SDS011;4157;48.074;9.952;2022-07-09T08:33:56;6.22;;;1.80;;
8232;SDS011;4157;48.074;9.952;2022-07-09T08:36:24;5.50;;;1.77;;
8232;SDS011;4157;48.074;9.952;2022-07-09T08:38:52;5.70;;;1.65;;
8232;SDS011;4157;48.074;9.952;2022-07-09T08:41:19;5.82;;;1.98;;
8232;SDS011;4157;48.074;9.952;2022-07-09T08:43:50;7.78;;;1.75;;
8232;SDS011;4157;48.074;9.952;2022-07-09T08:46:19;3.15;;;1.27;;
8232;SDS011;4157;48.074;9.952;2022-07-09T08:48:48;6.97;;;1.75;;
8232;SDS011;4157;48.074;9.952;2022-07-09T08:51:17;6.03;;;1.70;;
8232;SDS011;4157;48.074;9.952;2022-07-09T08:53:45;4.97;;;1.60;;
8232;SDS011;4157;48.074;9.952;2022-07-09T08:56:13;6.32;;;1.80;;
8232;SDS011;4157;48.074;9.952;2022-07-09T08:58:41;4.90;;;1.83;;
8232;SDS011;4157;48.074;9.952;2022-07-09T09:01:10;4.65;;;1.50;;
8232;SDS011;4157;48.074;9.952;2022-07-09T09:03:39;3.85;;;1.45;;
8232;SDS011;4157;48.074;9.952;2022-07-09T09:06:10;4.35;;;1.45;;
8232;SDS011;4157;48.074;9.952;2022-07-09T09:08:39;5.35;;;1.58;;
8232;SDS011;4157;48.074;9.952;2022-07-09T09:11:08;4.45;;;1.45;;
8232;SDS011;4157;48.074;9.952;2022-07-09T09:13:40;4.80;;;1.35;;
8232;SDS011;4157;48.074;9.952;2022-07-09T09:16:08;5.75;;;1.63;;
8232;SDS011;4157;48.074;9.952;2022-07-09T09:18:39;4.65;;;1.30;;
8232;SDS011;4157;48.074;9.952;2022-07-09T09:21:07;4.32;;;1.50;;
8232;SDS011;4157;48.074;9.952;2022-07-09T09:23:41;5.75;;;1.38;;
8232;SDS011;4157;48.074;9.952;2022-07-09T09:26:09;3.20;;;1.23;;
8232;SDS011;4157;48.074;9.952;2022-07-09T09:28:46;5.97;;;1.45;;
8232;SDS011;4157;48.074;9.952;2022-07-09T09:31:21;6.22;;;1.40;;
8232;SDS011;4157;48.074;9.952;2022-07-09T09:33:49;3.03;;;1.20;;
8232;SDS011;4157;48.074;9.952;2022-07-09T09:36:28;3.92;;;1.38;;
8232;SDS011;4157;48.074;9.952;2022-07-09T09:39:08;3.92;;;1.25;;
8232;SDS011;4157;48.074;9.952;2022-07-09T09:41:35;3.88;;;1.30;;
8232;SDS011;4157;48.074;9.952;2022-07-09T09:44:04;3.60;;;1.10;;
8232;SDS011;4157;48.074;9.952;2022-07-09T09:46:34;5.57;;;1.40;;
8232;SDS011;4157;48.074;9.952;2022-07-09T09:49:03;3.10;;;1.05;;
8232;SDS011;4157;48.074;9.952;2022-07-09T09:51:34;4.32;;;1.20;;
8232;SDS011;4157;48.074;9.952;2022-07-09T09:54:02;3.72;;;1.10;;
8232;SDS011;4157;48.074;9.952;2022-07-09T09:56:31;3.92;;;1.38;;
8232;SDS011;4157;48.074;9.952;2022-07-09T09:59:00;6.63;;;1.67;;
8232;SDS011;4157;48.074;9.952;2022-07-09T10:01:28;5.15;;;1.10;;
8232;SDS011;4157;48.074;9.952;2022-07-09T10:03:57;3.78;;;1.20;;
8232;SDS011;4157;48.074;9.952;2022-07-09T10:06:25;3.55;;;1.10;;
8232;SDS011;4157;48.074;9.952;2022-07-09T10:08:53;3.53;;;1.00;;
8232;SDS011;4157;48.074;9.952;2022-07-09T10:11:21;3.45;;;1.15;;
8232;SDS011;4157;48.074;9.952;2022-07-09T10:13:54;4.55;;;0.80;;
8232;SDS011;4157;48.074;9.952;2022-07-09T10:16:32;3.45;;;0.73;;
8232;SDS011;4157;48.074;9.952;2022-07-09T10:19:00;4.63;;;1.00;;
8232;SDS011;4157;48.074;9.952;2022-07-09T10:21:32;4.45;;;0.90;;
8232;SDS011;4157;48.074;9.952;2022-07-09T10:24:00;3.65;;;0.90;;
8232;SDS011;4157;48.074;9.952;2022-07-09T10:26:34;4.22;;;1.10;;
8232;SDS011;4157;48.074;9.952;2022-07-09T10:29:18;3.97;;;1.10;;
8232;SDS011;4157;48.074;9.952;2022-07-09T10:31:46;3.22;;;0.90;;
8232;SDS011;4157;48.074;9.952;2022-07-09T10:34:18;2.75;;;0.80;;
8232;SDS011;4157;48.074;9.952;2022-07-09T10:36:56;2.38;;;0.90;;
8232;SDS011;4157;48.074;9.952;2022-07-09T10:39:24;4.10;;;0.90;;
8232;SDS011;4157;48.074;9.952;2022-07-09T10:41:58;2.95;;;1.13;;
8232;SDS011;4157;48.074;9.952;2022-07-09T10:44:28;7.70;;;1.92;;
8232;SDS011;4157;48.074;9.952;2022-07-09T10:46:56;2.70;;;1.00;;
8232;SDS011;4157;48.074;9.952;2022-07-09T10:49:24;4.47;;;0.93;;
8232;SDS011;4157;48.074;9.952;2022-07-09T10:51:56;3.40;;;1.05;;
8232;SDS011;4157;48.074;9.952;2022-07-09T10:54:24;5.25;;;1.00;;
8232;SDS011;4157;48.074;9.952;2022-07-09T10:56:52;3.35;;;1.05;;
8232;SDS011;4157;48.074;9.952;2022-07-09T10:59:21;2.78;;;0.90;;
8232;SDS011;4157;48.074;9.952;2022-07-09T11:01:50;3.17;;;0.80;;
8232;SDS011;4157;48.074;9.952;2022-07-09T11:04:25;2.08;;;0.70;;
8232;SDS011;4157;48.074;9.952;2022-07-09T11:06:52;1.88;;;0.90;;
8232;SDS011;4157;48.074;9.952;2022-07-09T11:09:20;3.58;;;1.00;;
8232;SDS011;4157;48.074;9.952;2022-07-09T11:11:48;3.28;;;0.93;;
8232;SDS011;4157;48.074;9.952;2022-07-09T11:14:16;2.58;;;0.75;;
8232;SDS011;4157;48.074;9.952;2022-07-09T11:16:54;3.25;;;0.90;;
8232;SDS011;4157;48.074;9.952;2022-07-09T11:19:22;6.53;;;1.13;;
8232;SDS011;4157;48.074;9.952;2022-07-09T11:21:50;2.88;;;0.73;;
8232;SDS011;4157;48.074;9.952;2022-07-09T11:24:27;2.40;;;0.90;;
8232;SDS011;4157;48.074;9.952;2022-07-09T11:27:00;2.22;;;1.00;;
8232;SDS011;4157;48.074;9.952;2022-07-09T11:29:29;1.58;;;0.82;;
8232;SDS011;4157;48.074;9.952;2022-07-09T11:31:58;2.90;;;0.80;;
8232;SDS011;4157;48.074;9.952;2022-07-09T11:34:27;2.75;;;1.10;;
8232;SDS011;4157;48.074;9.952;2022-07-09T11:36:56;2.28;;;0.75;;
8232;SDS011;4157;48.074;9.952;2022-07-09T11:39:25;2.25;;;0.70;;
8232;SDS011;4157;48.074;9.952;2022-07-09T11:41:53;2.42;;;0.90;;
8232;SDS011;4157;48.074;9.952;2022-07-09T11:44:22;3.05;;;1.17;;
8232;SDS011;4157;48.074;9.952;2022-07-09T11:47:02;3.58;;;0.70;;
8232;SDS011;4157;48.074;9.952;2022-07-09T11:49:36;2.85;;;0.70;;
8232;SDS011;4157;48.074;9.952;2022-07-09T11:52:05;2.70;;;1.05;;
8232;SDS011;4157;48.074;9.952;2022-07-09T11:54:56;2.97;;;0.80;;
8232;SDS011;4157;48.074;9.952;2022-07-09T11:57:24;4.22;;;1.10;;
8232;SDS011;4157;48.074;9.952;2022-07-09T11:59:52;5.07;;;0.75;;
8232;SDS011;4157;48.074;9.952;2022-07-09T12:02:25;2.22;;;0.77;;
8232;SDS011;4157;48.074;9.952;2022-07-09T12:04:53;1.90;;;0.77;;
8232;SDS011;4157;48.074;9.952;2022-07-09T12:07:21;1.08;;;0.55;;
8232;SDS011;4157;48.074;9.952;2022-07-09T12:09:56;2.28;;;0.90;;
8232;SDS011;4157;48.074;9.952;2022-07-09T12:12:25;1.92;;;0.75;;
8232;SDS011;4157;48.074;9.952;2022-07-09T12:14:53;1.88;;;0.80;;
8232;SDS011;4157;48.074;9.952;2022-07-09T12:17:26;2.03;;;0.75;;
8232;SDS011;4157;48.074;9.952;2022-07-09T12:19:54;2.50;;;0.85;;
8232;SDS011;4157;48.074;9.952;2022-07-09T12:22:23;2.60;;;0.90;;
8232;SDS011;4157;48.074;9.952;2022-07-09T12:24:51;4.10;;;1.55;;
8232;SDS011;4157;48.074;9.952;2022-07-09T12:27:19;3.20;;;0.80;;
8232;SDS011;4157;48.074;9.952;2022-07-09T12:29:47;2.55;;;1.15;;
8232;SDS011;4157;48.074;9.952;2022-07-09T12:32:15;2.80;;;0.80;;
8232;SDS011;4157;48.074;9.952;2022-07-09T12:34:44;3.45;;;0.80;;
8232;SDS011;4157;48.074;9.952;2022-07-09T12:37:12;1.73;;;0.70;;
8232;SDS011;4157;48.074;9.952;2022-07-09T12:39:40;4.25;;;1.00;;
8232;SDS011;4157;48.074;9.952;2022-07-09T12:42:07;2.58;;;0.90;;
8232;SDS011;4157;48.074;9.952;2022-07-09T12:44:35;1.88;;;0.68;;
8232;SDS011;4157;48.074;9.952;2022-07-09T12:47:03;2.35;;;0.80;;
8232;SDS011;4157;48.074;9.952;2022-07-09T12:49:31;1.67;;;0.80;;
8232;SDS011;4157;48.074;9.952;2022-07-09T12:52:00;1.63;;;0.80;;
8232;SDS011;4157;48.074;9.952;2022-07-09T12:54:28;2.08;;;0.80;;
8232;SDS011;4157;48.074;9.952;2022-07-09T12:56:55;2.85;;;0.70;;
8232;SDS011;4157;48.074;9.952;2022-07-09T12:59:23;1.92;;;0.93;;
8232;SDS011;4157;48.074;9.952;2022-07-09T13:01:51;1.85;;;0.75;;
8232;SDS011;4157;48.074;9.952;2022-07-09T13:04:19;4.05;;;0.80;;
8232;SDS011;4157;48.074;9.952;2022-07-09T13:06:47;1.88;;;0.60;;
8232;SDS011;4157;48.074;9.952;2022-07-09T13:09:16;3.58;;;0.70;;
8232;SDS011;4157;48.074;9.952;2022-07-09T13:11:44;1.98;;;0.70;;
8232;SDS011;4157;48.074;9.952;2022-07-09T13:14:14;1.33;;;0.70;;
8232;SDS011;4157;48.074;9.952;2022-07-09T13:16:41;3.38;;;0.80;;
8232;SDS011;4157;48.074;9.952;2022-07-09T13:19:10;1.88;;;0.68;;
8232;SDS011;4157;48.074;9.952;2022-07-09T13:21:38;1.83;;;0.65;;
8232;SDS011;4157;48.074;9.952;2022-07-09T13:24:06;4.07;;;0.70;;
8232;SDS011;4157;48.074;9.952;2022-07-09T13:26:35;3.28;;;0.70;;
8232;SDS011;4157;48.074;9.952;2022-07-09T13:29:03;2.63;;;0.88;;
8232;SDS011;4157;48.074;9.952;2022-07-09T13:31:31;2.20;;;0.82;;
8232;SDS011;4157;48.074;9.952;2022-07-09T13:33:58;1.92;;;0.63;;
8232;SDS011;4157;48.074;9.952;2022-07-09T13:36:26;3.10;;;0.90;;
8232;SDS011;4157;48.074;9.952;2022-07-09T13:38:54;1.83;;;0.82;;
8232;SDS011;4157;48.074;9.952;2022-07-09T13:41:22;1.70;;;0.68;;
8232;SDS011;4157;48.074;9.952;2022-07-09T13:43:51;2.75;;;1.05;;
8232;SDS011;4157;48.074;9.952;2022-07-09T13:46:19;2.65;;;1.08;;
8232;SDS011;4157;48.074;9.952;2022-07-09T13:48:47;3.00;;;1.20;;
8232;SDS011;4157;48.074;9.952;2022-07-09T13:51:15;3.90;;;0.80;;
8232;SDS011;4157;48.074;9.952;2022-07-09T13:53:43;4.32;;;1.20;;
8232;SDS011;4157;48.074;9.952;2022-07-09T13:56:10;2.40;;;0.82;;
8232;SDS011;4157;48.074;9.952;2022-07-09T13:58:38;2.55;;;0.65;;
8232;SDS011;4157;48.074;9.952;2022-07-09T14:01:09;3.03;;;1.20;;
8232;SDS011;4157;48.074;9.952;2022-07-09T14:03:37;2.95;;;1.00;;
8232;SDS011;4157;48.074;9.952;2022-07-09T14:06:04;2.00;;;0.82;;
8232;SDS011;4157;48.074;9.952;2022-07-09T14:08:32;2.08;;;0.80;;
8232;SDS011;4157;48.074;9.952;2022-07-09T14:11:00;3.00;;;0.77;;
8232;SDS011;4157;48.074;9.952;2022-07-09T14:13:28;1.65;;;0.60;;
8232;SDS011;4157;48.074;9.952;2022-07-09T14:15:56;2.22;;;0.65;;
8232;SDS011;4157;48.074;9.952;2022-07-09T14:18:27;3.30;;;0.93;;
8232;SDS011;4157;48.074;9.952;2022-07-09T14:20:55;4.82;;;0.90;;
8232;SDS011;4157;48.074;9.952;2022-07-09T14:23:23;2.38;;;0.70;;
8232;SDS011;4157;48.074;9.952;2022-07-09T14:25:50;2.78;;;0.88;;
8232;SDS011;4157;48.074;9.952;2022-07-09T14:28:18;3.88;;;0.93;;
8232;SDS011;4157;48.074;9.952;2022-07-09T14:30:46;1.45;;;0.60;;
8232;SDS011;4157;48.074;9.952;2022-07-09T14:33:14;5.65;;;3.00;;
8232;SDS011;4157;48.074;9.952;2022-07-09T14:35:43;3.22;;;1.20;;
8232;SDS011;4157;48.074;9.952;2022-07-09T14:38:12;2.35;;;0.70;;
8232;SDS011;4157;48.074;9.952;2022-07-09T14:40:40;2.13;;;0.82;;
8232;SDS011;4157;48.074;9.952;2022-07-09T14:43:08;2.22;;;0.70;;
8232;SDS011;4157;48.074;9.952;2022-07-09T14:45:36;2.80;;;0.80;;
8232;SDS011;4157;48.074;9.952;2022-07-09T14:48:04;2.33;;;0.68;;
8232;SDS011;4157;48.074;9.952;2022-07-09T14:50:34;2.63;;;0.70;;
8232;SDS011;4157;48.074;9.952;2022-07-09T14:53:03;3.30;;;0.70;;
8232;SDS011;4157;48.074;9.952;2022-07-09T14:55:31;3.35;;;0.70;;
8232;SDS011;4157;48.074;9.952;2022-07-09T14:58:00;4.63;;;0.88;;
8232;SDS011;4157;48.074;9.952;2022-07-09T15:00:28;3.80;;;0.70;;
8232;SDS011;4157;48.074;9.952;2022-07-09T15:02:56;3.75;;;1.20;;
8232;SDS011;4157;48.074;9.952;2022-07-09T15:05:24;2.95;;;1.00;;
8232;SDS011;4157;48.074;9.952;2022-07-09T15:07:52;1.95;;;0.60;;
8232;SDS011;4157;48.074;9.952;2022-07-09T15:10:21;3.33;;;1.00;;
8232;SDS011;4157;48.074;9.952;2022-07-09T15:12:50;3.97;;;0.70;;
8232;SDS011;4157;48.074;9.952;2022-07-09T15:15:18;3.95;;;1.00;;
8232;SDS011;4157;48.074;9.952;2022-07-09T15:17:45;3.05;;;0.90;;
8232;SDS011;4157;48.074;9.952;2022-07-09T15:20:14;3.67;;;0.65;;
8232;SDS011;4157;48.074;9.952;2022-07-09T15:22:41;3.67;;;0.80;;
8232;SDS011;4157;48.074;9.952;2022-07-09T15:25:09;1.73;;;0.65;;